createdAt,value
2018-09-11T00:00:32.150Z,101216.00
2018-09-11T00:03:01.537Z,101220.00
2018-09-11T00:05:31.004Z,101219.00
2018-09-11T00:08:00.374Z,101221.00
2018-09-11T00:10:30.081Z,101222.00
2018-09-11T00:12:59.473Z,101223.00
2018-09-11T00:15:28.889Z,101226.00
2018-09-11T00:17:58.285Z,101216.00
2018-09-11T00:20:27.628Z,101227.00
2018-09-11T00:22:56.998Z,101227.00
2018-09-11T00:25:26.368Z,101214.00
2018-09-11T00:27:55.761Z,101216.00
2018-09-11T00:30:25.288Z,101218.00
2018-09-11T00:32:54.667Z,101216.00
2018-09-11T00:35:24.042Z,101218.00
2018-09-11T00:37:53.430Z,101223.00
2018-09-11T00:40:23.203Z,101217.00
2018-09-11T00:42:52.562Z,101214.00
2018-09-11T00:45:22.009Z,101219.00
2018-09-11T00:47:51.381Z,101216.00
2018-09-11T00:50:20.754Z,101221.00
2018-09-11T00:52:50.129Z,101221.00
2018-09-11T00:55:19.482Z,101221.00
2018-09-11T00:57:48.855Z,101221.00
2018-09-11T01:00:18.257Z,101221.00
2018-09-11T01:02:47.648Z,101220.00
2018-09-11T01:05:17.029Z,101223.00
2018-09-11T01:07:46.414Z,101218.00
2018-09-11T01:10:15.819Z,101211.00
2018-09-11T01:12:45.182Z,101205.00
2018-09-11T01:15:14.582Z,101213.00
2018-09-11T01:17:43.985Z,101202.00
2018-09-11T01:20:13.356Z,101215.00
2018-09-11T01:22:42.769Z,101211.00
2018-09-11T01:25:12.166Z,101208.00
2018-09-11T01:27:41.522Z,101214.00
2018-09-11T01:30:10.997Z,101213.00
2018-09-11T01:32:40.364Z,101206.00
2018-09-11T01:35:09.730Z,101201.00
2018-09-11T01:37:39.095Z,101206.00
2018-09-11T01:40:08.528Z,101208.00
2018-09-11T01:42:37.936Z,101203.00
2018-09-11T01:45:07.589Z,101198.00
2018-09-11T01:47:37.790Z,101194.00
2018-09-11T01:50:07.234Z,101189.00
2018-09-11T01:52:36.651Z,101187.00
2018-09-11T01:55:06.429Z,101190.00
2018-09-11T01:57:35.810Z,101183.00
2018-09-11T02:00:05.460Z,101175.00
2018-09-11T02:02:34.863Z,101177.00
2018-09-11T02:05:04.249Z,101176.00
2018-09-11T02:07:33.609Z,101173.00
2018-09-11T02:10:02.985Z,101177.00
2018-09-11T02:12:32.369Z,101175.00
2018-09-11T02:15:01.782Z,101183.00
2018-09-11T02:17:31.346Z,101169.00
2018-09-11T02:20:00.759Z,101183.00
2018-09-11T02:22:30.124Z,101186.00
2018-09-11T02:24:59.514Z,101190.00
2018-09-11T02:27:28.972Z,101193.00
2018-09-11T02:29:58.359Z,101187.00
2018-09-11T02:32:27.727Z,101184.00
2018-09-11T02:34:57.114Z,101184.00
2018-09-11T02:37:26.479Z,101192.00
2018-09-11T02:39:55.849Z,101189.00
2018-09-11T02:42:25.243Z,101182.00
2018-09-11T02:44:54.631Z,101179.00
2018-09-11T02:47:23.989Z,101174.00
2018-09-11T02:49:53.398Z,101196.00
2018-09-11T02:52:22.793Z,101180.00
2018-09-11T02:54:52.190Z,101193.00
2018-09-11T02:57:21.552Z,101183.00
2018-09-11T02:59:50.915Z,101188.00
2018-09-11T03:02:20.316Z,101189.00
2018-09-11T03:04:49.717Z,101194.00
2018-09-11T03:07:19.092Z,101190.00
2018-09-11T03:09:48.467Z,101197.00
2018-09-11T03:12:17.823Z,101211.00
2018-09-11T03:14:47.189Z,101210.00
2018-09-11T03:17:16.570Z,101209.00
2018-09-11T03:19:45.972Z,101204.00
2018-09-11T03:22:15.372Z,101203.00
2018-09-11T03:24:44.749Z,101208.00
2018-09-11T03:27:14.201Z,101199.00
2018-09-11T03:29:43.686Z,101199.00
2018-09-11T03:32:13.135Z,101209.00
2018-09-11T03:34:42.497Z,101201.00
2018-09-11T03:37:11.885Z,101203.00
2018-09-11T03:39:41.251Z,101204.00
2018-09-11T03:42:10.642Z,101209.00
2018-09-11T03:44:39.986Z,101207.00
2018-09-11T03:47:09.341Z,101204.00
2018-09-11T03:49:38.753Z,101199.00
2018-09-11T03:52:08.182Z,101208.00
2018-09-11T03:54:37.611Z,101204.00
2018-09-11T03:57:07.049Z,101205.00
2018-09-11T03:59:36.457Z,101201.00
2018-09-11T04:02:05.854Z,101204.00
2018-09-11T04:04:35.226Z,101204.00
2018-09-11T04:07:04.642Z,101218.00
2018-09-11T04:09:34.054Z,101225.00
2018-09-11T04:12:03.404Z,101226.00
2018-09-11T04:14:32.783Z,101224.00
2018-09-11T04:17:02.170Z,101228.00
2018-09-11T04:19:31.558Z,101230.00
2018-09-11T04:22:00.981Z,101229.00
2018-09-11T04:24:30.369Z,101230.00
2018-09-11T04:26:59.739Z,101223.00
2018-09-11T04:29:29.122Z,101216.00
2018-09-11T04:31:58.514Z,101207.00
2018-09-11T04:34:27.886Z,101221.00
2018-09-11T04:36:57.282Z,101226.00
2018-09-11T04:39:26.677Z,101219.00
2018-09-11T04:41:56.077Z,101219.00
2018-09-11T04:44:25.438Z,101222.00
2018-09-11T04:46:54.853Z,101215.00
2018-09-11T04:49:24.229Z,101222.00
2018-09-11T04:51:53.658Z,101219.00
2018-09-11T04:54:23.056Z,101220.00
2018-09-11T04:56:52.410Z,101206.00
2018-09-11T04:59:21.801Z,101213.00
2018-09-11T05:01:51.166Z,101209.00
2018-09-11T05:04:20.537Z,101214.00
2018-09-11T05:06:50.237Z,101218.00
2018-09-11T05:09:19.606Z,101222.00
2018-09-11T05:11:49.042Z,101221.00
2018-09-11T05:14:18.499Z,101220.00
2018-09-11T05:16:47.890Z,101212.00
2018-09-11T05:19:17.375Z,101205.00
2018-09-11T05:21:46.661Z,101209.00
2018-09-11T05:24:16.038Z,101216.00
2018-09-11T05:26:45.481Z,101212.00
2018-09-11T05:29:15.082Z,101208.00
2018-09-11T05:31:44.460Z,101206.00
2018-09-11T05:34:13.892Z,101202.00
2018-09-11T05:36:43.286Z,101206.00
2018-09-11T05:39:12.715Z,101201.00
2018-09-11T05:41:42.042Z,101202.00
2018-09-11T05:44:11.413Z,101204.00
2018-09-11T05:46:40.773Z,101217.00
2018-09-11T05:49:10.143Z,101207.00
2018-09-11T05:51:39.578Z,101219.00
2018-09-11T05:54:09.168Z,101210.00
2018-09-11T05:56:38.546Z,101222.00
2018-09-11T05:59:07.950Z,101218.00
2018-09-11T06:01:37.352Z,101216.00
2018-09-11T06:04:06.863Z,101220.00
2018-09-11T06:06:36.300Z,101215.00
2018-09-11T06:09:09.940Z,101224.00
2018-09-11T06:11:39.309Z,101216.00
2018-09-11T06:14:08.706Z,101215.00
2018-09-11T06:16:38.059Z,101209.00
2018-09-11T06:19:07.569Z,101216.00
2018-09-11T06:21:36.993Z,101209.00
2018-09-11T06:24:06.597Z,101201.00
2018-09-11T06:26:35.974Z,101220.00
2018-09-11T06:29:05.390Z,101216.00
2018-09-11T06:31:34.818Z,101222.00
2018-09-11T06:34:04.318Z,101224.00
2018-09-11T06:36:33.786Z,101219.00
2018-09-11T06:39:03.256Z,101225.00
2018-09-11T06:41:32.802Z,101227.00
2018-09-11T06:44:02.191Z,101220.00
2018-09-11T06:46:31.738Z,101228.00
2018-09-11T06:49:01.138Z,101224.00
2018-09-11T06:51:31.174Z,101232.00
2018-09-11T06:54:00.641Z,101227.00
2018-09-11T06:56:30.061Z,101233.00
2018-09-11T06:58:59.648Z,101233.00
2018-09-11T07:01:29.025Z,101230.00
2018-09-11T07:03:58.446Z,101235.00
2018-09-11T07:06:27.871Z,101237.00
2018-09-11T07:08:57.310Z,101241.00
2018-09-11T07:11:26.733Z,101239.00
2018-09-11T07:13:56.116Z,101239.00
2018-09-11T07:16:25.613Z,101238.00
2018-09-11T07:18:55.045Z,101250.00
2018-09-11T07:21:24.495Z,101230.00
2018-09-11T07:23:54.790Z,101239.00
2018-09-11T07:26:24.229Z,101231.00
2018-09-11T07:28:54.261Z,101235.00
2018-09-11T07:31:23.742Z,101242.00
2018-09-11T07:33:53.649Z,101239.00
2018-09-11T07:36:23.230Z,101233.00
2018-09-11T07:38:52.589Z,101241.00
2018-09-11T07:41:22.095Z,101233.00
2018-09-11T07:43:51.531Z,101242.00
2018-09-11T07:46:20.921Z,101241.00
2018-09-11T07:48:51.049Z,101246.00
2018-09-11T07:51:20.441Z,101246.00
2018-09-11T07:53:49.902Z,101249.00
2018-09-11T07:56:19.363Z,101254.00
2018-09-11T07:58:48.774Z,101246.00
2018-09-11T08:01:18.210Z,101252.00
2018-09-11T08:03:47.798Z,101253.00
2018-09-11T08:06:17.259Z,101260.00
2018-09-11T08:08:46.788Z,101260.00
2018-09-11T08:11:16.964Z,101263.00
2018-09-11T08:13:46.383Z,101254.00
2018-09-11T08:16:16.430Z,101253.00
2018-09-11T08:18:45.831Z,101252.00
2018-09-11T08:21:15.271Z,101262.00
2018-09-11T08:23:44.722Z,101249.00
2018-09-11T08:26:14.185Z,101258.00
2018-09-11T08:28:43.596Z,101257.00
2018-09-11T08:31:13.004Z,101253.00
2018-09-11T08:33:42.453Z,101256.00
2018-09-11T08:36:11.964Z,101260.00
2018-09-11T08:38:41.372Z,101254.00
2018-09-11T08:41:10.945Z,101256.00
2018-09-11T08:43:40.440Z,101246.00
2018-09-11T08:46:10.411Z,101253.00
2018-09-11T08:48:40.011Z,101245.00
2018-09-11T08:51:10.320Z,101243.00
2018-09-11T08:53:41.439Z,101249.00
2018-09-11T08:56:10.895Z,101251.00
2018-09-11T08:58:40.338Z,101248.00
2018-09-11T09:01:09.730Z,101251.00
2018-09-11T09:03:39.216Z,101246.00
2018-09-11T09:06:08.591Z,101247.00
2018-09-11T09:08:38.026Z,101241.00
2018-09-11T09:11:07.526Z,101249.00
2018-09-11T09:13:36.999Z,101249.00
2018-09-11T09:16:06.475Z,101240.00
2018-09-11T09:18:35.888Z,101243.00
2018-09-11T09:21:05.456Z,101247.00
2018-09-11T09:23:34.837Z,101254.00
2018-09-11T09:26:04.288Z,101243.00
2018-09-11T09:28:33.686Z,101236.00
2018-09-11T09:31:03.095Z,101231.00
2018-09-11T09:33:32.489Z,101219.00
2018-09-11T09:36:02.031Z,101231.00
2018-09-11T09:38:31.455Z,101232.00
2018-09-11T09:41:00.898Z,101231.00
2018-09-11T09:43:30.344Z,101227.00
2018-09-11T09:45:59.869Z,101222.00
2018-09-11T09:48:29.253Z,101226.00
2018-09-11T09:50:58.693Z,101226.00
2018-09-11T09:53:28.063Z,101222.00
2018-09-11T09:55:57.648Z,101223.00
2018-09-11T09:58:27.169Z,101210.00
2018-09-11T10:00:57.951Z,101209.00
2018-09-11T10:03:27.345Z,101213.00
2018-09-11T10:05:56.906Z,101209.00
2018-09-11T10:08:26.442Z,101219.00
2018-09-11T10:10:56.057Z,101228.00
2018-09-11T10:13:25.438Z,101220.00
2018-09-11T10:15:54.819Z,101223.00
2018-09-11T10:18:24.198Z,101224.00
2018-09-11T10:20:53.590Z,101229.00
2018-09-11T10:23:22.983Z,101224.00
2018-09-11T10:25:52.376Z,101225.00
2018-09-11T10:28:21.789Z,101225.00
2018-09-11T10:30:51.158Z,101224.00
2018-09-11T10:33:20.603Z,101222.00
2018-09-11T10:35:50.055Z,101208.00
2018-09-11T10:38:19.494Z,101210.00
2018-09-11T10:40:48.915Z,101206.00
2018-09-11T10:43:18.291Z,101203.00
2018-09-11T10:45:47.697Z,101199.00
2018-09-11T10:48:17.076Z,101207.00
2018-09-11T10:50:46.531Z,101205.00
2018-09-11T10:53:15.998Z,101200.00
2018-09-11T10:55:45.403Z,101201.00
2018-09-11T10:58:14.831Z,101192.00
2018-09-11T11:00:44.221Z,101197.00
2018-09-11T11:03:13.722Z,101189.00
2018-09-11T11:05:43.211Z,101189.00
2018-09-11T11:08:12.618Z,101195.00
2018-09-11T11:10:42.199Z,101194.00
2018-09-11T11:13:11.885Z,101186.00
2018-09-11T11:15:41.290Z,101180.00
2018-09-11T11:18:10.718Z,101173.00
2018-09-11T11:20:40.100Z,101168.00
2018-09-11T11:23:09.588Z,101165.00
2018-09-11T11:25:39.093Z,101170.00
2018-09-11T11:28:08.490Z,101173.00
2018-09-11T11:30:37.892Z,101179.00
2018-09-11T11:33:07.366Z,101181.00
2018-09-11T11:35:36.765Z,101181.00
2018-09-11T11:38:06.246Z,101170.00
2018-09-11T11:40:35.738Z,101177.00
2018-09-11T11:43:05.227Z,101170.00
2018-09-11T11:45:34.625Z,101178.00
2018-09-11T11:48:04.184Z,101183.00
2018-09-11T11:50:33.582Z,101187.00
2018-09-11T11:53:03.071Z,101182.00
2018-09-11T11:55:32.509Z,101179.00
2018-09-11T11:58:02.373Z,101180.00
2018-09-11T12:00:31.845Z,101183.00
2018-09-11T12:03:01.227Z,101185.00
2018-09-11T12:05:30.652Z,101190.00
2018-09-11T12:08:00.062Z,101193.00
2018-09-11T12:10:31.541Z,101188.00
2018-09-11T12:13:02.819Z,101187.00
2018-09-11T12:15:36.390Z,101173.00
2018-09-11T12:18:05.821Z,101183.00
2018-09-11T12:20:35.302Z,101176.00
2018-09-11T12:23:04.718Z,101169.00
2018-09-11T12:25:34.289Z,101169.00
2018-09-11T12:28:03.786Z,101174.00
2018-09-11T12:30:33.239Z,101166.00
2018-09-11T12:33:02.721Z,101163.00
2018-09-11T12:35:32.182Z,101154.00
2018-09-11T12:38:01.658Z,101151.00
2018-09-11T12:40:31.052Z,101145.00
2018-09-11T12:43:00.575Z,101143.00
2018-09-11T17:59:57.893Z,101018.00
2018-09-11T18:02:27.362Z,101023.00
2018-09-11T18:04:56.768Z,101024.00
2018-09-11T18:07:26.212Z,101023.00
2018-09-11T18:09:55.611Z,101018.00
2018-09-11T18:12:25.017Z,101027.00
2018-09-11T18:14:54.372Z,101039.00
2018-09-11T18:17:23.781Z,101042.00
2018-09-11T18:19:53.296Z,101043.00
2018-09-11T18:22:22.734Z,101041.00
2018-09-11T18:24:52.215Z,101039.00
2018-09-11T18:27:21.687Z,101042.00
2018-09-11T18:29:51.059Z,101047.00
2018-09-11T18:32:20.486Z,101050.00
2018-09-11T18:34:50.026Z,101056.00
2018-09-11T18:37:19.489Z,101051.00
2018-09-11T18:39:48.887Z,101053.00
2018-09-11T18:42:18.310Z,101064.00
2018-09-11T18:44:47.761Z,101055.00
2018-09-11T18:47:17.107Z,101058.00
2018-09-11T18:49:46.576Z,101062.00
2018-09-11T18:52:15.999Z,101063.00
2018-09-11T18:54:45.531Z,101077.00
2018-09-11T18:57:14.925Z,101057.00
2018-09-11T18:59:44.373Z,101068.00
2018-09-11T19:02:13.857Z,101072.00
2018-09-11T19:04:43.307Z,101061.00
2018-09-11T19:07:12.714Z,101070.00
2018-09-11T19:09:42.167Z,101075.00
2018-09-11T19:12:11.694Z,101079.00
2018-09-11T19:14:41.151Z,101075.00
2018-09-11T19:17:10.640Z,101073.00
2018-09-11T19:19:40.093Z,101079.00
2018-09-11T19:22:09.511Z,101070.00
2018-09-11T19:24:38.981Z,101073.00
2018-09-11T19:27:08.488Z,101079.00
2018-09-11T19:29:37.931Z,101064.00
2018-09-11T19:32:07.421Z,101064.00
2018-09-11T19:34:36.887Z,101068.00
2018-09-11T19:37:06.429Z,101067.00
2018-09-11T19:39:35.920Z,101061.00
2018-09-11T19:42:05.558Z,100989.00
2018-09-11T19:44:35.012Z,101060.00
2018-09-11T19:47:04.520Z,101055.00
2018-09-11T19:49:33.996Z,101064.00
2018-09-11T19:52:05.455Z,101072.00
2018-09-11T19:54:34.950Z,101064.00
2018-09-11T19:57:04.543Z,101058.00
2018-09-11T19:59:33.984Z,101060.00
2018-09-11T20:02:03.444Z,101061.00
2018-09-11T20:04:32.894Z,101062.00
2018-09-11T20:07:02.458Z,101055.00
2018-09-11T20:09:31.877Z,101062.00
2018-09-11T20:12:01.396Z,101055.00
2018-09-11T20:14:30.831Z,101069.00
2018-09-11T20:17:00.335Z,101064.00
2018-09-11T20:19:29.754Z,101060.00
2018-09-11T20:21:59.237Z,101063.00
2018-09-11T20:24:28.778Z,101060.00
2018-09-11T20:26:58.259Z,101059.00
2018-09-11T20:29:27.749Z,101052.00
2018-09-11T20:31:57.268Z,101057.00
2018-09-11T20:34:26.686Z,101060.00
2018-09-11T20:36:56.110Z,101061.00
2018-09-11T20:39:25.523Z,101061.00
2018-09-11T20:41:54.981Z,101061.00
2018-09-11T20:44:24.451Z,101057.00
2018-09-11T20:46:53.848Z,101058.00
2018-09-11T20:49:23.290Z,101067.00
2018-09-11T20:51:52.754Z,101056.00
2018-09-11T20:54:22.190Z,101057.00
2018-09-11T20:56:51.602Z,101056.00
2018-09-11T20:59:20.989Z,101069.00
2018-09-11T21:01:50.403Z,101064.00
2018-09-11T21:04:19.790Z,101064.00
2018-09-11T21:06:49.230Z,101069.00
2018-09-11T21:09:18.586Z,101072.00
2018-09-11T21:11:48.062Z,101071.00
2018-09-11T21:14:17.433Z,101073.00
2018-09-11T21:16:46.850Z,101064.00
2018-09-11T21:19:16.257Z,101079.00
2018-09-11T21:21:45.778Z,101074.00
2018-09-11T21:24:15.230Z,101079.00
2018-09-11T21:26:44.638Z,101085.00
2018-09-11T21:29:14.049Z,101077.00
2018-09-11T21:31:43.438Z,101067.00
2018-09-11T21:34:12.805Z,101081.00
2018-09-11T21:36:42.240Z,101078.00
2018-09-11T21:39:12.456Z,101079.00
2018-09-11T21:41:41.874Z,101085.00
2018-09-11T21:44:11.256Z,101078.00
2018-09-11T21:46:40.661Z,101081.00
2018-09-11T21:49:10.074Z,101080.00
2018-09-11T21:51:39.486Z,101076.00
2018-09-11T21:54:08.924Z,101081.00
2018-09-11T21:56:38.317Z,101084.00
2018-09-11T21:59:07.770Z,101079.00
2018-09-11T22:01:43.035Z,101082.00
2018-09-11T22:04:12.547Z,101090.00
2018-09-11T22:06:41.961Z,101079.00
2018-09-11T22:09:12.038Z,101083.00
2018-09-11T22:11:41.751Z,101080.00
2018-09-11T22:14:11.425Z,101081.00
2018-09-11T22:16:40.849Z,101087.00
2018-09-11T22:19:10.273Z,101081.00
2018-09-11T22:21:39.751Z,101087.00
2018-09-11T22:24:09.146Z,101089.00
2018-09-11T22:26:38.548Z,101088.00
2018-09-11T22:29:07.941Z,101077.00
2018-09-11T22:31:37.350Z,101079.00
2018-09-11T22:34:06.775Z,101077.00
2018-09-11T22:36:36.179Z,101077.00
2018-09-11T22:39:07.501Z,101084.00
2018-09-11T22:41:36.989Z,101088.00
2018-09-11T22:44:06.757Z,101079.00
2018-09-11T22:46:36.170Z,101069.00
2018-09-11T22:49:05.642Z,101074.00
2018-09-11T22:51:35.039Z,101070.00
2018-09-11T22:54:04.513Z,101075.00
2018-09-11T22:56:33.905Z,101075.00
2018-09-11T22:59:03.345Z,101074.00
2018-09-11T23:01:32.722Z,101072.00
2018-09-11T23:04:02.094Z,101069.00
2018-09-11T23:06:31.478Z,101076.00
2018-09-11T23:09:00.866Z,101073.00
2018-09-11T23:11:30.232Z,101063.00
2018-09-11T23:13:59.602Z,101059.00
2018-09-11T23:16:28.989Z,101061.00
2018-09-11T23:18:58.443Z,101063.00
2018-09-11T23:21:27.833Z,101067.00
2018-09-11T23:23:57.221Z,101066.00
2018-09-11T23:26:26.665Z,101061.00
2018-09-11T23:28:56.030Z,101048.00
2018-09-11T23:31:25.406Z,101057.00
2018-09-11T23:33:54.760Z,101059.00
2018-09-11T23:36:27.107Z,101050.00
2018-09-11T23:38:56.469Z,101050.00
2018-09-11T23:41:25.930Z,101055.00
2018-09-11T23:43:55.369Z,101043.00
2018-09-11T23:46:24.755Z,101054.00
2018-09-11T23:48:54.133Z,101049.00
2018-09-11T23:51:23.485Z,101054.00
2018-09-11T23:53:52.873Z,101056.00
2018-09-11T23:56:22.438Z,101052.00
2018-09-11T23:58:51.822Z,101052.00
